createdAt,value
2022-09-15T00:01:05.300Z,100275.88
2022-09-15T00:03:30.858Z,100278.66
2022-09-15T00:05:56.391Z,100274.25
2022-09-15T00:08:21.927Z,100285.03
2022-09-15T00:10:49.471Z,100280.63
2022-09-15T00:13:15.152Z,100284.53
2022-09-15T00:15:40.690Z,100285.34
2022-09-15T00:18:06.443Z,100293.69
2022-09-15T00:20:32.040Z,100279.81
2022-09-15T00:22:57.583Z,100277.84
2022-09-15T00:25:23.125Z,100290.09
2022-09-15T00:27:48.772Z,100285.34
2022-09-15T00:30:14.385Z,100284.53
2022-09-15T00:32:39.932Z,100284.03
2022-09-15T00:35:05.525Z,100278.19
2022-09-15T00:37:31.176Z,100273.75
2022-09-15T00:39:56.769Z,100286.50
2022-09-15T00:42:22.330Z,100275.41
2022-09-15T00:47:25.632Z,100273.75
2022-09-15T00:49:58.233Z,100278.19
2022-09-15T00:52:27.307Z,100279.28
2022-09-15T00:54:55.207Z,100285.69
2022-09-15T00:57:22.494Z,100285.69
2022-09-15T00:59:48.223Z,100287.63
2022-09-15T01:02:19.107Z,100278.47
2022-09-15T01:04:44.711Z,100278.47
2022-09-15T01:07:11.412Z,100283.22
2022-09-15T01:09:39.015Z,100281.25
2022-09-15T01:12:04.567Z,100272.94
2022-09-15T01:14:30.144Z,100269.03
2022-09-15T01:16:59.272Z,100270.97
2022-09-15T01:19:44.686Z,100269.34
2022-09-15T01:22:30.116Z,100270.16
2022-09-15T01:25:15.539Z,100271.81
2022-09-15T01:28:01.020Z,100274.88
2022-09-15T01:30:26.582Z,100279.63
2022-09-15T01:33:05.364Z,100282.06
2022-09-15T01:35:36.197Z,100277.66
2022-09-15T01:38:03.732Z,100277.66
2022-09-15T01:40:31.356Z,100266.56
2022-09-15T01:42:57.256Z,100259.38
2022-09-15T01:45:24.191Z,100260.19
2022-09-15T01:47:50.195Z,100268.53
2022-09-15T01:50:18.020Z,100264.13
2022-09-15T01:52:44.606Z,100264.94
2022-09-15T01:55:12.379Z,100265.75
2022-09-15T01:57:37.927Z,100266.88
2022-09-15T02:00:04.547Z,100268.84
2022-09-15T02:02:32.407Z,100273.25
2022-09-15T02:04:59.275Z,100268.03
2022-09-15T02:07:46.675Z,100270.00
2022-09-15T02:12:59.082Z,100270.81
2022-09-15T02:15:28.279Z,100279.97
2022-09-15T02:17:54.656Z,100279.44
2022-09-15T02:20:22.901Z,100278.31
2022-09-15T02:22:53.056Z,100283.03
2022-09-15T02:25:20.841Z,100277.47
2022-09-15T02:27:47.205Z,100277.47
2022-09-15T02:30:13.926Z,100279.44
2022-09-15T02:32:40.869Z,100279.97
2022-09-15T02:35:06.837Z,100273.59
2022-09-15T02:37:32.593Z,100277.47
2022-09-15T02:39:58.278Z,100272.78
2022-09-15T02:42:24.609Z,100278.31
2022-09-15T02:44:50.210Z,100283.88
2022-09-15T02:47:15.776Z,100276.38
2022-09-15T02:49:41.318Z,100277.19
2022-09-15T02:52:06.872Z,100283.88
2022-09-15T02:54:32.538Z,100289.72
2022-09-15T02:56:59.397Z,100279.78
2022-09-15T02:59:25.020Z,100286.66
2022-09-15T03:01:51.088Z,100279.44
2022-09-15T03:04:16.671Z,100279.44
2022-09-15T03:06:42.768Z,100275.84
2022-09-15T03:09:08.392Z,100267.53
2022-09-15T03:11:34.086Z,100266.72
2022-09-15T03:14:00.730Z,100270.28
2022-09-15T03:16:27.171Z,100269.47
2022-09-15T03:18:54.760Z,100275.84
2022-09-15T03:21:20.791Z,100281.41
2022-09-15T03:23:46.449Z,100290.88
2022-09-15T03:26:12.035Z,100286.13
2022-09-15T03:28:38.049Z,100275.84
2022-09-15T03:31:03.944Z,100286.47
2022-09-15T03:33:29.524Z,100297.25
2022-09-15T03:35:55.073Z,100294.47
2022-09-15T03:38:20.763Z,100283.38
2022-09-15T03:41:06.910Z,100292.84
2022-09-15T03:43:32.514Z,100301.16
2022-09-15T03:45:58.163Z,100301.97
2022-09-15T03:48:24.000Z,100304.75
2022-09-15T03:50:49.756Z,100298.38
2022-09-15T03:53:15.408Z,100292.03
2022-09-15T03:55:40.957Z,100305.91
2022-09-15T03:58:07.092Z,100296.75
2022-09-15T04:00:33.339Z,100295.91
2022-09-15T04:02:58.927Z,100294.78
2022-09-15T04:05:24.492Z,100291.22
2022-09-15T04:07:50.243Z,100289.53
2022-09-15T04:10:15.808Z,100290.34
2022-09-15T04:12:41.357Z,100296.75
2022-09-15T04:15:07.008Z,100292.84
2022-09-15T04:17:32.553Z,100284.81
2022-09-15T04:19:58.090Z,100282.03
2022-09-15T04:22:23.641Z,100284.81
2022-09-15T04:24:49.289Z,100298.38
2022-09-15T04:27:15.203Z,100293.47
2022-09-15T04:29:41.357Z,100295.44
2022-09-15T04:32:07.147Z,100297.38
2022-09-15T04:34:32.684Z,100299.34
2022-09-15T04:36:58.231Z,100291.03
2022-09-15T04:39:24.692Z,100294.09
2022-09-15T04:41:50.263Z,100294.09
2022-09-15T04:44:15.800Z,100293.28
2022-09-15T04:46:41.415Z,100292.47
2022-09-15T04:49:07.003Z,100307.16
2022-09-15T04:51:32.551Z,100298.84
2022-09-15T04:53:58.092Z,100300.50
2022-09-15T04:56:24.711Z,100298.53
2022-09-15T04:58:51.827Z,100295.75
2022-09-15T05:01:18.867Z,100294.09
2022-09-15T05:03:45.612Z,100294.09
2022-09-15T05:06:12.240Z,100305.53
2022-09-15T05:08:37.929Z,100310.25
2022-09-15T05:11:04.479Z,100309.13
2022-09-15T05:13:30.033Z,100305.53
2022-09-15T05:15:55.621Z,100309.44
2022-09-15T05:18:21.433Z,100309.13
2022-09-15T05:20:46.963Z,100325.47
2022-09-15T05:23:12.508Z,100322.69
2022-09-15T05:25:38.047Z,100321.84
2022-09-15T05:28:04.204Z,100325.47
2022-09-15T05:30:38.650Z,100328.72
2022-09-15T05:33:04.799Z,100331.31
2022-09-15T05:35:30.340Z,100332.97
2022-09-15T05:37:55.984Z,100330.19
2022-09-15T05:40:21.890Z,100336.56
2022-09-15T05:42:47.485Z,100331.84
2022-09-15T05:45:13.034Z,100329.88
2022-09-15T05:47:38.604Z,100330.03
2022-09-15T05:50:04.327Z,100336.53
2022-09-15T05:52:29.876Z,100331.91
2022-09-15T05:54:59.015Z,100331.13
2022-09-15T05:57:24.912Z,100328.06
2022-09-15T05:59:50.446Z,100325.78
2022-09-15T06:02:16.057Z,100330.19
2022-09-15T06:04:41.644Z,100334.09
2022-09-15T06:07:07.193Z,100339.97
2022-09-15T06:09:33.928Z,100343.38
2022-09-15T06:11:59.477Z,100348.59
2022-09-15T06:14:25.013Z,100350.56
2022-09-15T06:16:50.563Z,100342.25
2022-09-15T06:19:16.100Z,100347.78
2022-09-15T06:21:41.644Z,100350.06
2022-09-15T06:24:07.512Z,100346.16
2022-09-15T06:26:33.125Z,100344.72
2022-09-15T06:28:59.936Z,100351.91
2022-09-15T06:31:26.307Z,100352.72
2022-09-15T06:33:53.161Z,100352.72
2022-09-15T06:36:19.733Z,100360.22
2022-09-15T06:38:45.280Z,100353.22
2022-09-15T06:41:10.918Z,100351.72
2022-09-15T06:43:36.679Z,100347.50
2022-09-15T06:46:07.018Z,100364.34
2022-09-15T06:48:32.653Z,100360.41
2022-09-15T06:50:58.387Z,100364.81
2022-09-15T06:53:23.930Z,100368.75
2022-09-15T06:55:49.471Z,100364.00
2022-09-15T06:58:15.029Z,100370.38
2022-09-15T07:00:40.691Z,100373.16
2022-09-15T07:03:06.649Z,100365.97
2022-09-15T07:05:32.271Z,100372.00
2022-09-15T07:07:58.071Z,100375.91
2022-09-15T07:10:23.611Z,100380.66
2022-09-15T07:12:49.162Z,100376.25
2022-09-15T07:15:14.704Z,100375.72
2022-09-15T07:17:40.267Z,100390.44
2022-09-15T07:20:05.933Z,100387.16
2022-09-15T07:22:31.487Z,100381.63
2022-09-15T07:24:57.028Z,100384.06
2022-09-15T07:27:25.972Z,100397.44
2022-09-15T07:29:51.514Z,100398.47
2022-09-15T07:32:17.074Z,100394.88
2022-09-15T07:34:42.611Z,100391.25
2022-09-15T07:37:08.164Z,100407.06
2022-09-15T07:39:33.698Z,100413.16
2022-09-15T07:41:59.247Z,100418.69
2022-09-15T07:44:24.779Z,100434.53
2022-09-15T07:46:50.320Z,100432.88
2022-09-15T07:49:15.856Z,100429.81
2022-09-15T07:51:42.183Z,100432.59
2022-09-15T07:54:07.719Z,100423.94
2022-09-15T07:56:33.293Z,100433.41
2022-09-15T07:58:58.842Z,100431.72
2022-09-15T08:01:24.449Z,100438.44
2022-09-15T08:03:51.115Z,100435.84
2022-09-15T08:06:17.612Z,100434.41
2022-09-15T08:08:43.230Z,100439.44
2022-09-15T08:11:09.537Z,100440.25
2022-09-15T08:13:35.084Z,100442.41
2022-09-15T08:16:04.600Z,100442.41
2022-09-15T08:18:30.148Z,100444.69
2022-09-15T08:20:55.682Z,100441.91
2022-09-15T08:23:22.276Z,100449.72
2022-09-15T08:25:50.574Z,100461.03
2022-09-15T08:28:16.363Z,100458.25
2022-09-15T08:30:41.910Z,100456.59
2022-09-15T08:33:07.524Z,100468.53
2022-09-15T08:35:33.560Z,100463.78
2022-09-15T08:37:59.166Z,100464.59
2022-09-15T08:40:26.609Z,100467.72
2022-09-15T08:42:52.508Z,100472.94
2022-09-15T08:45:22.800Z,100482.41
2022-09-15T08:47:48.347Z,100478.81
2022-09-15T08:50:19.855Z,100478.81
2022-09-15T08:52:48.482Z,100483.84
2022-09-15T08:55:25.353Z,100484.66
2022-09-15T08:57:52.276Z,100496.09
2022-09-15T09:00:17.867Z,100485.19
2022-09-15T09:02:46.269Z,100484.38
2022-09-15T09:05:31.835Z,100496.28
2022-09-15T09:08:08.782Z,100487.97
2022-09-15T09:10:37.986Z,100490.28
2022-09-15T09:13:10.065Z,100491.53
2022-09-15T09:21:02.284Z,100487.38
2022-09-15T09:23:28.102Z,100494.78
2022-09-15T09:25:55.200Z,100485.81
2022-09-15T09:28:29.045Z,100493.84
2022-09-15T09:30:56.000Z,100486.31
2022-09-15T09:33:25.630Z,100492.19
2022-09-15T09:35:51.678Z,100494.31
2022-09-15T09:38:21.190Z,100497.44
2022-09-15T09:40:47.081Z,100503.81
2022-09-15T09:43:12.650Z,100490.81
2022-09-15T09:45:38.196Z,100498.59
2022-09-15T09:48:19.494Z,100496.72
2022-09-15T09:50:45.259Z,100507.06
2022-09-15T09:53:21.225Z,100500.00
2022-09-15T09:55:46.865Z,100500.81
2022-09-15T09:58:14.792Z,100493.00
2022-09-15T10:00:40.487Z,100490.09
2022-09-15T10:03:10.895Z,100498.06
2022-09-15T10:05:36.430Z,100489.59
2022-09-15T10:08:02.120Z,100494.00
2022-09-15T10:10:31.348Z,100495.97
2022-09-15T10:12:57.307Z,100490.41
2022-09-15T10:15:23.604Z,100494.31
2022-09-15T10:17:49.277Z,100493.78
2022-09-15T10:20:24.748Z,100493.31
2022-09-15T10:22:50.476Z,100483.84
2022-09-15T10:28:16.632Z,100482.09
2022-09-15T10:30:58.338Z,100486.53
2022-09-15T10:33:24.939Z,100485.69
2022-09-15T10:35:50.627Z,100480.13
2022-09-15T10:38:16.984Z,100481.31
2022-09-15T10:40:47.683Z,100478.88
2022-09-15T10:43:18.617Z,100480.03
2022-09-15T10:45:46.274Z,100480.50
2022-09-15T10:51:15.135Z,100478.06
2022-09-15T10:53:44.142Z,100486.69
2022-09-15T10:56:26.718Z,100474.97
2022-09-15T10:59:12.168Z,100465.28
2022-09-15T11:01:58.869Z,100463.66
2022-09-15T11:04:44.345Z,100470.03
2022-09-15T11:07:29.780Z,100482.47
2022-09-15T11:09:57.389Z,100486.38
2022-09-15T11:12:42.838Z,100491.13
2022-09-15T11:15:16.042Z,100497.69
2022-09-15T11:17:59.388Z,100499.63
2022-09-15T11:20:44.820Z,100502.59
2022-09-15T11:23:18.346Z,100491.28
2022-09-15T11:25:45.423Z,100489.03
2022-09-15T11:28:13.476Z,100488.97
2022-09-15T11:30:47.643Z,100497.50
2022-09-15T11:33:16.945Z,100491.63
2022-09-15T11:35:46.390Z,100499.31
2022-09-15T11:38:20.858Z,100503.94
2022-09-15T11:40:47.403Z,100498.06
2022-09-15T11:43:15.789Z,100499.41
2022-09-15T11:45:43.714Z,100496.44
2022-09-15T11:48:29.143Z,100489.22
2022-09-15T11:50:55.006Z,100480.91
2022-09-15T11:53:37.528Z,100490.88
2022-09-15T11:56:07.398Z,100500.03
2022-09-15T11:58:38.256Z,100502.19
2022-09-15T12:01:13.690Z,100502.81
2022-09-15T12:03:45.118Z,100498.81
2022-09-15T12:06:13.858Z,100496.03
2022-09-15T12:08:40.383Z,100506.31
2022-09-15T12:11:07.273Z,100506.84
2022-09-15T12:13:32.814Z,100497.97
2022-09-15T12:15:59.879Z,100501.56
2022-09-15T12:18:38.453Z,100503.53
2022-09-15T12:21:12.264Z,100503.03
2022-09-15T12:23:40.305Z,100505.31
2022-09-15T12:26:13.803Z,100512.19
2022-09-15T12:31:24.777Z,100513.19
2022-09-15T12:33:57.240Z,100514.50
2022-09-15T12:36:38.695Z,100511.72
2022-09-15T12:39:15.258Z,100522.84
2022-09-15T12:41:45.352Z,100524.78
2022-09-15T12:44:13.972Z,100533.34
2022-09-15T12:46:39.841Z,100525.84
2022-09-15T12:49:05.445Z,100534.16
2022-09-15T12:51:32.165Z,100534.16
2022-09-15T12:53:59.526Z,100537.53
2022-09-15T12:56:25.765Z,100540.88
2022-09-15T12:58:51.386Z,100545.88
2022-09-15T13:01:20.603Z,100549.78
2022-09-15T13:06:26.326Z,100547.00
2022-09-15T13:09:12.255Z,100552.56
2022-09-15T13:11:39.285Z,100551.41
2022-09-15T13:19:29.359Z,100545.19
2022-09-15T13:21:57.646Z,100542.72
2022-09-15T13:24:25.855Z,100543.03
2022-09-15T13:26:51.964Z,100546.31
2022-09-15T13:29:17.652Z,100548.28
2022-09-15T13:31:52.719Z,100539.63
2022-09-15T13:40:26.582Z,100535.03
2022-09-15T13:43:12.087Z,100522.78
2022-09-15T13:45:57.818Z,100528.31
2022-09-15T13:51:12.313Z,100521.19
2022-09-15T13:53:43.839Z,100507.88
2022-09-15T13:56:11.258Z,100509.72
2022-09-15T13:58:57.539Z,100507.47
2022-09-15T14:01:24.958Z,100507.13
2022-09-15T14:03:52.376Z,100508.78
2022-09-15T14:06:20.560Z,100509.59
2022-09-15T14:08:47.235Z,100514.03
2022-09-15T14:11:13.616Z,100509.50
2022-09-15T14:13:41.391Z,100512.78
2022-09-15T14:16:18.310Z,100507.84
2022-09-15T14:18:44.302Z,100516.47
2022-09-15T14:21:12.292Z,100521.09
2022-09-15T14:23:42.978Z,100513.09
2022-09-15T14:26:09.755Z,100514.84
2022-09-15T14:28:35.284Z,100519.25
2022-09-15T14:31:01.131Z,100510.44
2022-09-15T14:33:32.370Z,100509.91
2022-09-15T14:36:01.882Z,100511.88
2022-09-15T14:38:27.533Z,100510.22
2022-09-15T14:40:54.277Z,100503.88
2022-09-15T14:43:22.847Z,100509.41
2022-09-15T14:45:54.363Z,100507.47
2022-09-15T14:48:27.081Z,100505.50
2022-09-15T14:50:57.132Z,100515.97
2022-09-15T14:53:22.728Z,100505.69
2022-09-15T14:55:52.952Z,100511.44
2022-09-15T14:58:20.398Z,100513.41
2022-09-15T15:00:56.724Z,100505.88
2022-09-15T15:03:26.627Z,100510.09
2022-09-15T15:06:02.371Z,100512.81
2022-09-15T15:08:33.786Z,100513.75
2022-09-15T15:10:59.674Z,100514.09
2022-09-15T15:13:25.212Z,100511.31
2022-09-15T15:15:50.758Z,100506.88
2022-09-15T15:18:36.764Z,100511.31
2022-09-15T15:21:02.839Z,100517.16
2022-09-15T15:23:28.381Z,100508.53
2022-09-15T15:25:53.928Z,100510.97
2022-09-15T15:28:35.171Z,100504.63
2022-09-15T15:31:17.452Z,100505.31
2022-09-15T15:33:44.613Z,100510.44
2022-09-15T15:36:11.088Z,100510.22
2022-09-15T15:38:47.530Z,100513.34
2022-09-15T15:41:18.480Z,100512.19
2022-09-15T15:43:53.292Z,100506.94
2022-09-15T15:46:25.756Z,100508.28
2022-09-15T15:48:51.384Z,100508.59
2022-09-15T15:51:16.923Z,100508.78
2022-09-15T15:53:42.458Z,100508.28
2022-09-15T15:56:08.124Z,100520.19
2022-09-15T15:58:33.861Z,100512.06
2022-09-15T16:00:59.515Z,100521.00
2022-09-15T16:03:25.079Z,100517.75
2022-09-15T16:05:52.246Z,100523.09
2022-09-15T16:08:22.177Z,100521.66
2022-09-15T16:10:48.174Z,100516.94
2022-09-15T16:13:14.509Z,100517.75
2022-09-15T16:15:40.452Z,100516.94
2022-09-15T16:18:05.991Z,100521.34
2022-09-15T16:20:31.542Z,100516.78
2022-09-15T16:22:57.084Z,100517.41
2022-09-15T16:25:28.047Z,100520.00
2022-09-15T16:27:53.582Z,100514.44
2022-09-15T16:30:19.122Z,100510.56
2022-09-15T16:32:44.661Z,100510.84
2022-09-15T16:35:13.971Z,100512.31
2022-09-15T16:37:39.515Z,100519.00
2022-09-15T16:40:05.370Z,100518.69
2022-09-15T16:42:30.951Z,100522.91
2022-09-15T16:44:56.488Z,100524.88
2022-09-15T16:47:22.037Z,100523.22
2022-09-15T16:49:47.577Z,100530.22
2022-09-15T16:52:13.181Z,100533.19
2022-09-15T16:54:38.919Z,100535.16
2022-09-15T16:57:04.478Z,100539.06
2022-09-15T16:59:30.769Z,100534.34
2022-09-15T17:01:57.039Z,100531.56
2022-09-15T17:04:22.622Z,100531.56
2022-09-15T17:06:48.171Z,100537.94
2022-09-15T17:09:13.712Z,100540.69
2022-09-15T17:11:39.258Z,100539.56
2022-09-15T17:14:04.795Z,100541.84
2022-09-15T17:16:30.340Z,100543.81
2022-09-15T17:18:55.875Z,100542.97
2022-09-15T17:21:21.423Z,100556.03
2022-09-15T17:23:47.547Z,100551.81
2022-09-15T17:26:14.397Z,100552.63
2022-09-15T17:28:41.346Z,100549.34
2022-09-15T17:31:15.824Z,100551.28
2022-09-15T17:33:41.451Z,100551.28
2022-09-15T17:36:07.339Z,100551.28
2022-09-15T17:38:32.903Z,100546.59
2022-09-15T17:40:58.454Z,100549.66
2022-09-15T17:43:25.384Z,100555.19
2022-09-15T17:45:50.986Z,100558.31
2022-09-15T17:48:16.563Z,100554.38
2022-09-15T17:50:42.562Z,100554.72
2022-09-15T17:53:12.787Z,100559.59
2022-09-15T17:55:38.627Z,100557.97
2022-09-15T17:58:04.726Z,100565.50
2022-09-15T18:00:31.383Z,100557.16
2022-09-15T18:02:58.827Z,100559.44
2022-09-15T18:05:26.647Z,100553.56
2022-09-15T18:07:52.888Z,100553.56
2022-09-15T18:10:18.423Z,100555.53
2022-09-15T18:12:47.327Z,100551.94
2022-09-15T18:15:16.068Z,100553.56
2022-09-15T18:17:41.715Z,100557.16
2022-09-15T18:20:07.396Z,100565.50
2022-09-15T18:22:32.935Z,100567.44
2022-09-15T18:24:58.471Z,100563.84
2022-09-15T18:27:24.015Z,100572.19
2022-09-15T18:29:49.549Z,100565.81
2022-09-15T18:32:15.129Z,100565.81
2022-09-15T18:34:40.670Z,100575.78
2022-09-15T18:37:06.216Z,100574.13
2022-09-15T18:39:31.770Z,100570.22
2022-09-15T18:41:57.320Z,100568.59
2022-09-15T18:44:22.856Z,100577.22
2022-09-15T18:46:48.395Z,100576.09
2022-09-15T18:49:13.939Z,100573.31
2022-09-15T18:51:51.185Z,100578.06
2022-09-15T18:54:17.337Z,100584.72
2022-09-15T18:56:42.880Z,100583.59
2022-09-15T18:59:09.335Z,100585.53
2022-09-15T19:01:34.979Z,100593.88
2022-09-15T19:04:01.866Z,100587.19
2022-09-15T19:06:27.407Z,100595.00
2022-09-15T19:08:53.153Z,100598.59
2022-09-15T19:11:19.072Z,100596.63
2022-09-15T19:13:44.753Z,100604.16
2022-09-15T19:16:10.360Z,100602.19
2022-09-15T19:18:36.099Z,100603.31
2022-09-15T19:21:03.706Z,100610.50
2022-09-15T19:23:29.250Z,100612.47
2022-09-15T19:25:54.804Z,100612.78
2022-09-15T19:28:20.338Z,100614.44
2022-09-15T19:30:45.928Z,100613.28
2022-09-15T19:33:11.476Z,100624.09
2022-09-15T19:35:39.984Z,100615.25
2022-09-15T19:38:05.528Z,100620.81
2022-09-15T19:40:31.134Z,100621.63
2022-09-15T19:42:56.688Z,100619.16
2022-09-15T19:45:22.243Z,100619.16
2022-09-15T19:47:47.783Z,100619.97
2022-09-15T19:50:13.324Z,100625.53
2022-09-15T19:52:38.875Z,100625.53
2022-09-15T19:55:05.851Z,100621.94
2022-09-15T19:57:31.403Z,100631.09
2022-09-15T19:59:56.935Z,100623.91
2022-09-15T20:02:22.507Z,100631.41
2022-09-15T20:04:49.098Z,100638.09
2022-09-15T20:07:14.648Z,100634.19
2022-09-15T20:09:40.187Z,100631.41
2022-09-15T20:12:05.814Z,100635.31
2022-09-15T20:14:31.424Z,100632.22
2022-09-15T20:17:00.341Z,100642.81
2022-09-15T20:19:26.930Z,100640.88
2022-09-15T20:21:53.412Z,100647.25
2022-09-15T20:24:19.535Z,100647.25
2022-09-15T20:26:45.088Z,100642.50
2022-09-15T20:29:10.627Z,100652.78
2022-09-15T20:31:36.176Z,100662.22
2022-09-15T20:34:01.730Z,100650.31
2022-09-15T20:36:28.283Z,100656.38
2022-09-15T20:38:53.931Z,100658.34
2022-09-15T20:41:21.890Z,100665.84
2022-09-15T20:43:47.715Z,100662.22
2022-09-15T20:46:14.330Z,100661.13
2022-09-15T20:48:40.071Z,100666.16
2022-09-15T20:51:22.042Z,100667.28
2022-09-15T20:53:48.347Z,100666.16
2022-09-15T20:56:14.166Z,100666.97
2022-09-15T20:58:39.886Z,100668.91
2022-09-15T21:01:09.858Z,100668.09
2022-09-15T21:03:36.038Z,100666.16
2022-09-15T21:06:02.751Z,100662.56
2022-09-15T21:08:28.471Z,100666.47
2022-09-15T21:10:54.314Z,100663.69
2022-09-15T21:13:20.239Z,100673.16
2022-09-15T21:15:53.622Z,100665.31
2022-09-15T21:18:19.480Z,100667.28
2022-09-15T21:20:46.960Z,100663.69
2022-09-15T21:23:12.499Z,100666.47
2022-09-15T21:25:38.045Z,100674.78
2022-09-15T21:28:03.582Z,100672.31
2022-09-15T21:30:29.120Z,100673.16
2022-09-15T21:32:54.674Z,100671.50
2022-09-15T21:35:20.233Z,100679.53
2022-09-15T21:37:45.780Z,100672.31
2022-09-15T21:40:12.184Z,100681.78
2022-09-15T21:42:38.523Z,100680.63
2022-09-15T21:45:06.220Z,100670.66
2022-09-15T21:47:33.264Z,100675.09
2022-09-15T21:49:59.260Z,100677.03
2022-09-15T21:52:24.859Z,100683.41
2022-09-15T21:54:51.123Z,100675.94
2022-09-15T21:57:17.105Z,100685.06
2022-09-15T21:59:42.642Z,100677.84
2022-09-15T22:02:10.775Z,100680.97
2022-09-15T22:04:37.399Z,100684.53
2022-09-15T22:07:03.375Z,100690.09
2022-09-15T22:09:29.132Z,100691.72
2022-09-15T22:11:54.865Z,100684.53
2022-09-15T22:14:20.804Z,100690.91
2022-09-15T22:16:46.416Z,100696.47
2022-09-15T22:19:11.983Z,100701.19
2022-09-15T22:21:40.674Z,100697.59
2022-09-15T22:24:06.735Z,100699.56
2022-09-15T22:26:33.340Z,100701.19
2022-09-15T22:28:58.882Z,100702.03
2022-09-15T22:31:24.617Z,100698.44
2022-09-15T22:33:50.208Z,100695.97
2022-09-15T22:36:17.693Z,100690.41
2022-09-15T22:38:43.228Z,100692.38
2022-09-15T22:41:11.149Z,100696.78
2022-09-15T22:43:36.944Z,100689.59
2022-09-15T22:46:02.830Z,100683.72
2022-09-15T22:48:28.383Z,100689.59
2022-09-15T22:50:53.932Z,100686.00
2022-09-15T22:53:20.259Z,100682.09
2022-09-15T22:55:45.820Z,100686.81
2022-09-15T22:58:11.355Z,100687.66
2022-09-15T23:00:37.512Z,100690.75
2022-09-15T23:03:03.072Z,100687.97
2022-09-15T23:05:28.616Z,100682.41
2022-09-15T23:07:54.164Z,100684.34
2022-09-15T23:10:19.704Z,100686.81
2022-09-15T23:12:45.247Z,100693.19
2022-09-15T23:15:10.904Z,100686.00
2022-09-15T23:17:36.449Z,100689.06
2022-09-15T23:20:02.001Z,100686.28
2022-09-15T23:22:27.549Z,100687.97
2022-09-15T23:24:53.083Z,100685.19
2022-09-15T23:27:18.636Z,100680.75
2022-09-15T23:29:44.175Z,100690.22
2022-09-15T23:32:09.920Z,100685.47
2022-09-15T23:34:35.464Z,100689.88
2022-09-15T23:37:01.996Z,100687.44
2022-09-15T23:39:27.520Z,100692.66
2022-09-15T23:41:53.067Z,100690.41
2022-09-15T23:44:18.604Z,100674.09
2022-09-15T23:46:44.185Z,100659.06
2022-09-15T23:49:09.756Z,100656.59
2022-09-15T23:51:35.306Z,100654.94
2022-09-15T23:54:01.418Z,100650.53
2022-09-15T23:56:26.960Z,100642.53
2022-09-15T23:58:52.497Z,100650.53
